Terminal Aerodrome Forecast
Issued by NWS

Home | Current Version | Previous Version | Text Only | Print | Product List | Glossary On
Versions: 1 2 3 4 5 6 7 8 9 10 11 12 13 14 15 16 17
000
FTUS46 KPDT 020500
TAFALW
TAF
KALW 020520Z 0206/0306 17007KT P6SM SKC
     FM021500 22010KT P6SM SCT150 SCT250
     FM021900 24014G22KT P6SM SCT100 SCT200
     FM030400 21012KT P6SM FEW060 SCT100=

USA.gov is the U.S. government's official web portal to all federal, state and local government web resources and services.